Terminal Aerodrome Forecast
Issued by NWS Springfield, MO

Home | Current Version | Previous Version | Text Only | Print | Product List | Glossary On
Versions: 1 2 3 4 5 6 7 8 9 10 11 12 13 14 15 16 17 18
000
FTUS43 KSGF 162320
TAFSGF
TAF
KSGF 162320Z 1700/1724 18011KT P6SM BKN250
     FM170600 17008KT 6SM -SHRA BR OVC070
     FM170900 17011KT 5SM -RA BR BKN015
     FM171200 16011KT 6SM BR VCSH OVC008
     FM171400 16011KT P6SM OVC008
     FM171700 22011KT P6SM BKN015=

USA.gov is the U.S. government's official web portal to all federal, state and local government web resources and services.